Mary Bennett — WDC4592 — position and weather

sailwx.info

Track history (hours):
 
Tides and Currents Weather Stations Pressure Air Temp Water Temp Dewpoint Dewpoint Depression Visibility Wind Speed Wind Dir Waves Ship Positions

Mary Bennett

Owner: Savannah Marine Services, Savannah, GA. More information available from US FCC via Universal Licensing System and Coast Guard Vessel Documentation Center.

Last reported at 2017-Mar-30 06:33 UTC. Time now 2017-Mar-30 06:52 UTC.
Position N 32°08' W 081°08'.

Length 21 m; draft 2.3 m.

Type: Tug. MMSI: 367027140.

Date/timePositionNaut miles runAvg speedWind from/ knotsBaromVisibWave heightAir tempDewpointWater temp
2017-Mar-30 06:33N 32°08' W 081°08'0 0.0
2017-Mar-30 05:33N 32°08' W 081°08'0 0.5
2017-Mar-30 04:33N 32°08' W 081°09'0 0.1
2017-Mar-30 03:33N 32°08' W 081°09'0 0.0
2017-Mar-30 02:33N 32°08' W 081°09'1 0.6
2017-Mar-30 01:33N 32°08' W 081°08'0 0.1
2017-Mar-30 00:33N 32°08' W 081°09'0 0.0
2017-Mar-29 23:33N 32°08' W 081°09'0 0.1
2017-Mar-29 22:33N 32°08' W 081°09'0 0.1
2017-Mar-29 21:33N 32°08' W 081°09'0 0.1
2017-Mar-29 20:33N 32°08' W 081°08'0 0.1
2017-Mar-29 19:33N 32°08' W 081°09'0 0.3
2017-Mar-29 18:33N 32°08' W 081°08'0 0.3
2017-Mar-29 17:33N 32°08' W 081°09'0 0.1
2017-Mar-29 16:33N 32°08' W 081°08'0 0.2
2017-Mar-29 15:33N 32°08' W 081°09'1 0.6
2017-Mar-29 14:33N 32°07' W 081°08'0 0.0
2017-Mar-29 13:33N 32°07' W 081°08'0 0.4
2017-Mar-29 12:33N 32°08' W 081°08'0 0.0
2017-Mar-29 11:33N 32°08' W 081°08'0 0.3
2017-Mar-29 10:33N 32°08' W 081°08'1 0.5
2017-Mar-29 09:33N 32°08' W 081°08'0 0.1
2017-Mar-29 08:33N 32°08' W 081°08'0 0.1
2017-Mar-29 07:33N 32°08' W 081°08'0 0.0
2017-Mar-29 06:33N 32°08' W 081°08'0 0.1
2017-Mar-29 05:33N 32°08' W 081°08'0 0.1
2017-Mar-29 04:33N 32°08' W 081°08'0 0.0
2017-Mar-29 03:33N 32°08' W 081°08'1 0.5
2017-Mar-29 02:33N 32°07' W 081°08'0 0.1
2017-Mar-29 01:33N 32°07' W 081°08'0 0.4
2017-Mar-29 00:33N 32°08' W 081°08'0 0.3
2017-Mar-28 23:33N 32°07' W 081°08'1 1.2
2017-Mar-28 22:33N 32°09' W 081°08'0 0.0
2017-Mar-28 21:33N 32°09' W 081°08'3 3.2
2017-Mar-28 20:33N 32°06' W 081°07'0 0.0
2017-Mar-28 19:33N 32°06' W 081°07'3 3.2
2017-Mar-28 18:33N 32°09' W 081°08'1 0.6
2017-Mar-28 17:33N 32°08' W 081°09'0 0.1
2017-Mar-28 16:33N 32°08' W 081°08'0 0.2
2017-Mar-28 15:33N 32°08' W 081°08'1 1.2
2017-Mar-28 14:33N 32°07' W 081°08'1 1.4
2017-Mar-28 13:33N 32°06' W 081°07'0 0.0
2017-Mar-28 12:33N 32°06' W 081°07'3 3.2
2017-Mar-28 11:33N 32°09' W 081°08'1 0.8
2017-Mar-28 10:33N 32°08' W 081°08'0 0.2
2017-Mar-28 09:33N 32°08' W 081°09'0 0.1
2017-Mar-28 08:33N 32°08' W 081°08'0 0.0
2017-Mar-28 07:33N 32°08' W 081°08'0 0.5
2017-Mar-28 06:33N 32°08' W 081°09'0 0.2
2017-Mar-28 05:33N 32°09' W 081°09'0 0.1
2017-Mar-28 04:33N 32°08' W 081°09'0 0.0
2017-Mar-28 03:33N 32°08' W 081°09'0 0.0
2017-Mar-28 02:33N 32°08' W 081°09'0 0.1
2017-Mar-28 01:33N 32°08' W 081°09'0 0.0
2017-Mar-28 00:33N 32°09' W 081°09'0 0.2
2017-Mar-27 23:33N 32°08' W 081°09'0 0.1
2017-Mar-27 22:33N 32°08' W 081°09'1 0.6
2017-Mar-27 21:33N 32°08' W 081°08'0 0.4
2017-Mar-27 20:33N 32°07' W 081°08'0 0.3
2017-Mar-27 19:33N 32°08' W 081°08'0 0.1
2017-Mar-27 18:33N 32°08' W 081°08'0 0.0
2017-Mar-27 17:33N 32°08' W 081°08'0 0.3
2017-Mar-27 16:33N 32°08' W 081°08'0 0.2
2017-Mar-27 15:33N 32°08' W 081°08'0 0.1
2017-Mar-27 14:33N 32°08' W 081°08'0 0.2
2017-Mar-27 13:33N 32°07' W 081°08'0 0.3
2017-Mar-27 12:33N 32°08' W 081°08'0 0.2
2017-Mar-27 11:33N 32°08' W 081°08'0 0.1
2017-Mar-27 10:33N 32°08' W 081°08'0 0.0
2017-Mar-27 09:33N 32°08' W 081°08'0 0.1
2017-Mar-27 08:33N 32°08' W 081°08'0 0.1
2017-Mar-27 07:33N 32°08' W 081°08'1 0.8
2017-Mar-27 06:33N 32°09' W 081°08'0 0.2
2017-Mar-27 05:33N 32°09' W 081°09'0 0.1
2017-Mar-27 04:33N 32°09' W 081°09'0 0.1
2017-Mar-27 03:33N 32°09' W 081°09'0 0.1
2017-Mar-27 02:33N 32°09' W 081°09'0 0.2
2017-Mar-27 01:33N 32°09' W 081°09'0 0.2
2017-Mar-27 00:33N 32°09' W 081°09'0 0.2
2017-Mar-26 23:33N 32°09' W 081°09'0 0.0
2017-Mar-26 22:33N 32°09' W 081°09'0 0.0
2017-Mar-26 21:33N 32°09' W 081°09'0 0.1
2017-Mar-26 20:33N 32°09' W 081°09'0 0.0
2017-Mar-26 19:33N 32°09' W 081°09'0 0.2
2017-Mar-26 18:33N 32°09' W 081°09'0 0.1
2017-Mar-26 17:33N 32°09' W 081°09'0 0.1
2017-Mar-26 16:33N 32°09' W 081°09'0 0.1
2017-Mar-26 15:33N 32°09' W 081°09'0 0.0
2017-Mar-26 14:33N 32°09' W 081°09'0 0.2
2017-Mar-26 13:33N 32°09' W 081°08'0 0.2
2017-Mar-26 12:33N 32°09' W 081°09'0 0.1
2017-Mar-26 11:33N 32°09' W 081°09'0 0.1
2017-Mar-26 10:33N 32°09' W 081°09'0 0.0
2017-Mar-26 09:33N 32°09' W 081°09'0 0.1
2017-Mar-26 08:33N 32°09' W 081°09'0 0.1
2017-Mar-26 07:33N 32°09' W 081°09'0 0.0
2017-Mar-26 06:33N 32°09' W 081°09'0 0.0
2017-Mar-26 05:33N 32°09' W 081°09'0 0.2
2017-Mar-26 04:33N 32°09' W 081°08'0 0.2
2017-Mar-26 03:33N 32°09' W 081°09'0 0.0
2017-Mar-26 02:33N 32°09' W 081°08'0 0.0
2017-Mar-25 15:33N 32°09' W 081°09'0 0.1
2017-Mar-25 14:33N 32°09' W 081°09'0 0.0
2017-Mar-25 13:33N 32°09' W 081°09'0 0.1
2017-Mar-25 12:33N 32°09' W 081°09'0 0.1
2017-Mar-25 11:33N 32°09' W 081°09'0 0.2
2017-Mar-25 10:33N 32°09' W 081°09'0 0.1
2017-Mar-25 09:33N 32°09' W 081°09'0 0.0
2017-Mar-25 08:33N 32°09' W 081°09'0 0.1
2017-Mar-25 07:33N 32°09' W 081°09'0 0.1
2017-Mar-25 06:33N 32°09' W 081°09'0 0.1
2017-Mar-25 05:33N 32°09' W 081°09'0 0.2
2017-Mar-25 04:33N 32°09' W 081°09'0 0.1
2017-Mar-25 03:33N 32°09' W 081°09'0 0.1
2017-Mar-25 02:33N 32°09' W 081°09'0 0.1
2017-Mar-25 01:33N 32°09' W 081°09'0 0.0
2017-Mar-25 00:33N 32°09' W 081°09'0 0.1
2017-Mar-24 23:33N 32°09' W 081°09'0 0.0
2017-Mar-24 22:33N 32°09' W 081°09'0 0.1
2017-Mar-24 21:33N 32°09' W 081°09'0 0.2
2017-Mar-24 20:33N 32°09' W 081°09'0 0.2
2017-Mar-24 19:33N 32°09' W 081°08'0 0.0
2017-Mar-24 18:33N 32°09' W 081°08'0 0.2
2017-Mar-24 17:33N 32°09' W 081°09'0 0.2
2017-Mar-24 16:33N 32°09' W 081°09'0 0.1
2017-Mar-24 15:33N 32°09' W 081°09'0 0.0
2017-Mar-24 14:33N 32°09' W 081°09'0 0.1
2017-Mar-24 13:33N 32°09' W 081°09'0 0.1
2017-Mar-24 12:33N 32°09' W 081°08'0 0.2
2017-Mar-24 11:33N 32°09' W 081°09'0 0.0
2017-Mar-24 10:33N 32°09' W 081°09'0 0.1
2017-Mar-24 09:33N 32°09' W 081°09'1 1.3
2017-Mar-24 08:33N 32°07' W 081°08'3 3.1
2017-Mar-24 07:33N 32°05' W 081°06'0 0.1
2017-Mar-24 06:33N 32°05' W 081°06'0 0.0
2017-Mar-24 05:33N 32°05' W 081°06'0 0.0
2017-Mar-24 04:33N 32°05' W 081°06'3 3.1
2017-Mar-24 03:33N 32°05' W 081°02'7 7.0
2017-Mar-24 02:33N 32°06' W 080°54'9 8.6
2017-Mar-24 01:33N 32°13' W 080°47'249 6.9
2017-Mar-22 13:34N 34°43' W 076°49'7 6.7
2017-Mar-22 12:33N 34°42' W 076°41'2 2.5
2017-Mar-22 11:33N 34°40' W 076°41'4 4.4
2017-Mar-22 10:33N 34°40' W 076°47'4 4.4
2017-Mar-22 09:33N 34°40' W 076°52'  
Track history (hours):
 
Tides and Currents Weather Stations Pressure Air Temp Water Temp Dewpoint Dewpoint Depression Visibility Wind Speed Wind Dir Waves Ship Positions

Mary Bennett

Owner: Savannah Marine Services, Savannah, GA. More information available from US FCC via Universal Licensing System and Coast Guard Vessel Documentation Center.

Last reported at 2017-Mar-30 06:33 UTC. Time now 2017-Mar-30 06:52 UTC.
Position N 32°08' W 081°08'.

Length 21 m; draft 2.3 m.

Type: Tug. MMSI: 367027140.

Date/timePositionNaut miles runAvg speedWind from/ knotsBaromVisibWave heightAir tempDewpointWater temp
2017-Mar-30 06:33N 32°08' W 081°08'0 0.0
2017-Mar-30 05:33N 32°08' W 081°08'0 0.5
2017-Mar-30 04:33N 32°08' W 081°09'0 0.1
2017-Mar-30 03:33N 32°08' W 081°09'0 0.0
2017-Mar-30 02:33N 32°08' W 081°09'1 0.6
2017-Mar-30 01:33N 32°08' W 081°08'0 0.1
2017-Mar-30 00:33N 32°08' W 081°09'0 0.0
2017-Mar-29 23:33N 32°08' W 081°09'0 0.1
2017-Mar-29 22:33N 32°08' W 081°09'0 0.1
2017-Mar-29 21:33N 32°08' W 081°09'0 0.1
2017-Mar-29 20:33N 32°08' W 081°08'0 0.1
2017-Mar-29 19:33N 32°08' W 081°09'0 0.3
2017-Mar-29 18:33N 32°08' W 081°08'0 0.3
2017-Mar-29 17:33N 32°08' W 081°09'0 0.1
2017-Mar-29 16:33N 32°08' W 081°08'0 0.2
2017-Mar-29 15:33N 32°08' W 081°09'1 0.6
2017-Mar-29 14:33N 32°07' W 081°08'0 0.0
2017-Mar-29 13:33N 32°07' W 081°08'0 0.4
2017-Mar-29 12:33N 32°08' W 081°08'0 0.0
2017-Mar-29 11:33N 32°08' W 081°08'0 0.3
2017-Mar-29 10:33N 32°08' W 081°08'1 0.5
2017-Mar-29 09:33N 32°08' W 081°08'0 0.1
2017-Mar-29 08:33N 32°08' W 081°08'0 0.1
2017-Mar-29 07:33N 32°08' W 081°08'0 0.0
2017-Mar-29 06:33N 32°08' W 081°08'0 0.1
2017-Mar-29 05:33N 32°08' W 081°08'0 0.1
2017-Mar-29 04:33N 32°08' W 081°08'0 0.0
2017-Mar-29 03:33N 32°08' W 081°08'1 0.5
2017-Mar-29 02:33N 32°07' W 081°08'0 0.1
2017-Mar-29 01:33N 32°07' W 081°08'0 0.4
2017-Mar-29 00:33N 32°08' W 081°08'0 0.3
2017-Mar-28 23:33N 32°07' W 081°08'1 1.2
2017-Mar-28 22:33N 32°09' W 081°08'0 0.0
2017-Mar-28 21:33N 32°09' W 081°08'3 3.2
2017-Mar-28 20:33N 32°06' W 081°07'0 0.0
2017-Mar-28 19:33N 32°06' W 081°07'3 3.2
2017-Mar-28 18:33N 32°09' W 081°08'1 0.6
2017-Mar-28 17:33N 32°08' W 081°09'0 0.1
2017-Mar-28 16:33N 32°08' W 081°08'0 0.2
2017-Mar-28 15:33N 32°08' W 081°08'1 1.2
2017-Mar-28 14:33N 32°07' W 081°08'1 1.4
2017-Mar-28 13:33N 32°06' W 081°07'0 0.0
2017-Mar-28 12:33N 32°06' W 081°07'3 3.2
2017-Mar-28 11:33N 32°09' W 081°08'1 0.8
2017-Mar-28 10:33N 32°08' W 081°08'0 0.2
2017-Mar-28 09:33N 32°08' W 081°09'0 0.1
2017-Mar-28 08:33N 32°08' W 081°08'0 0.0
2017-Mar-28 07:33N 32°08' W 081°08'0 0.5
2017-Mar-28 06:33N 32°08' W 081°09'0 0.2
2017-Mar-28 05:33N 32°09' W 081°09'0 0.1
2017-Mar-28 04:33N 32°08' W 081°09'0 0.0
2017-Mar-28 03:33N 32°08' W 081°09'0 0.0
2017-Mar-28 02:33N 32°08' W 081°09'0 0.1
2017-Mar-28 01:33N 32°08' W 081°09'0 0.0
2017-Mar-28 00:33N 32°09' W 081°09'0 0.2
2017-Mar-27 23:33N 32°08' W 081°09'0 0.1
2017-Mar-27 22:33N 32°08' W 081°09'1 0.6
2017-Mar-27 21:33N 32°08' W 081°08'0 0.4
2017-Mar-27 20:33N 32°07' W 081°08'0 0.3
2017-Mar-27 19:33N 32°08' W 081°08'0 0.1
2017-Mar-27 18:33N 32°08' W 081°08'0 0.0
2017-Mar-27 17:33N 32°08' W 081°08'0 0.3
2017-Mar-27 16:33N 32°08' W 081°08'0 0.2
2017-Mar-27 15:33N 32°08' W 081°08'0 0.1
2017-Mar-27 14:33N 32°08' W 081°08'0 0.2
2017-Mar-27 13:33N 32°07' W 081°08'0 0.3
2017-Mar-27 12:33N 32°08' W 081°08'0 0.2
2017-Mar-27 11:33N 32°08' W 081°08'0 0.1
2017-Mar-27 10:33N 32°08' W 081°08'0 0.0
2017-Mar-27 09:33N 32°08' W 081°08'0 0.1
2017-Mar-27 08:33N 32°08' W 081°08'0 0.1
2017-Mar-27 07:33N 32°08' W 081°08'1 0.8
2017-Mar-27 06:33N 32°09' W 081°08'0 0.2
2017-Mar-27 05:33N 32°09' W 081°09'0 0.1
2017-Mar-27 04:33N 32°09' W 081°09'0 0.1
2017-Mar-27 03:33N 32°09' W 081°09'0 0.1
2017-Mar-27 02:33N 32°09' W 081°09'0 0.2
2017-Mar-27 01:33N 32°09' W 081°09'0 0.2
2017-Mar-27 00:33N 32°09' W 081°09'0 0.2
2017-Mar-26 23:33N 32°09' W 081°09'0 0.0
2017-Mar-26 22:33N 32°09' W 081°09'0 0.0
2017-Mar-26 21:33N 32°09' W 081°09'0 0.1
2017-Mar-26 20:33N 32°09' W 081°09'0 0.0
2017-Mar-26 19:33N 32°09' W 081°09'0 0.2
2017-Mar-26 18:33N 32°09' W 081°09'0 0.1
2017-Mar-26 17:33N 32°09' W 081°09'0 0.1
2017-Mar-26 16:33N 32°09' W 081°09'0 0.1
2017-Mar-26 15:33N 32°09' W 081°09'0 0.0
2017-Mar-26 14:33N 32°09' W 081°09'0 0.2
2017-Mar-26 13:33N 32°09' W 081°08'0 0.2
2017-Mar-26 12:33N 32°09' W 081°09'0 0.1
2017-Mar-26 11:33N 32°09' W 081°09'0 0.1
2017-Mar-26 10:33N 32°09' W 081°09'0 0.0
2017-Mar-26 09:33N 32°09' W 081°09'0 0.1
2017-Mar-26 08:33N 32°09' W 081°09'0 0.1
2017-Mar-26 07:33N 32°09' W 081°09'0 0.0
2017-Mar-26 06:33N 32°09' W 081°09'0 0.0
2017-Mar-26 05:33N 32°09' W 081°09'0 0.2
2017-Mar-26 04:33N 32°09' W 081°08'0 0.2
2017-Mar-26 03:33N 32°09' W 081°09'0 0.0
2017-Mar-26 02:33N 32°09' W 081°08'0 0.0
2017-Mar-25 15:33N 32°09' W 081°09'0 0.1
2017-Mar-25 14:33N 32°09' W 081°09'0 0.0
2017-Mar-25 13:33N 32°09' W 081°09'0 0.1
2017-Mar-25 12:33N 32°09' W 081°09'0 0.1
2017-Mar-25 11:33N 32°09' W 081°09'0 0.2
2017-Mar-25 10:33N 32°09' W 081°09'0 0.1
2017-Mar-25 09:33N 32°09' W 081°09'0 0.0
2017-Mar-25 08:33N 32°09' W 081°09'0 0.1
2017-Mar-25 07:33N 32°09' W 081°09'0 0.1
2017-Mar-25 06:33N 32°09' W 081°09'0 0.1
2017-Mar-25 05:33N 32°09' W 081°09'0 0.2
2017-Mar-25 04:33N 32°09' W 081°09'0 0.1
2017-Mar-25 03:33N 32°09' W 081°09'0 0.1
2017-Mar-25 02:33N 32°09' W 081°09'0 0.1
2017-Mar-25 01:33N 32°09' W 081°09'0 0.0
2017-Mar-25 00:33N 32°09' W 081°09'0 0.1
2017-Mar-24 23:33N 32°09' W 081°09'0 0.0
2017-Mar-24 22:33N 32°09' W 081°09'0 0.1
2017-Mar-24 21:33N 32°09' W 081°09'0 0.2
2017-Mar-24 20:33N 32°09' W 081°09'0 0.2
2017-Mar-24 19:33N 32°09' W 081°08'0 0.0
2017-Mar-24 18:33N 32°09' W 081°08'0 0.2
2017-Mar-24 17:33N 32°09' W 081°09'0 0.2
2017-Mar-24 16:33N 32°09' W 081°09'0 0.1
2017-Mar-24 15:33N 32°09' W 081°09'0 0.0
2017-Mar-24 14:33N 32°09' W 081°09'0 0.1
2017-Mar-24 13:33N 32°09' W 081°09'0 0.1
2017-Mar-24 12:33N 32°09' W 081°08'0 0.2
2017-Mar-24 11:33N 32°09' W 081°09'0 0.0
2017-Mar-24 10:33N 32°09' W 081°09'0 0.1
2017-Mar-24 09:33N 32°09' W 081°09'1 1.3
2017-Mar-24 08:33N 32°07' W 081°08'3 3.1
2017-Mar-24 07:33N 32°05' W 081°06'0 0.1
2017-Mar-24 06:33N 32°05' W 081°06'0 0.0
2017-Mar-24 05:33N 32°05' W 081°06'0 0.0
2017-Mar-24 04:33N 32°05' W 081°06'3 3.1
2017-Mar-24 03:33N 32°05' W 081°02'7 7.0
2017-Mar-24 02:33N 32°06' W 080°54'9 8.6
2017-Mar-24 01:33N 32°13' W 080°47'249 6.9
2017-Mar-22 13:34N 34°43' W 076°49'7 6.7
2017-Mar-22 12:33N 34°42' W 076°41'2 2.5
2017-Mar-22 11:33N 34°40' W 076°41'4 4.4
2017-Mar-22 10:33N 34°40' W 076°47'4 4.4
2017-Mar-22 09:33N 34°40' W 076°52'  

Dump ship's entire track history